Branch, Michigan
Current Conditions -  °F | °C
As of 8:35 PM on Wednesday 26 Nov 2014 (Local Time) from KLDM Reporting Station
Light Snow Light Snow  
Wind Chill: 29°   Ceiling: 3000
Heat Index: 29°   Visibility: 4mi
Dew Point: 28°   Wind: 0mph
Humidity: 94%   Direction: NA
Pressure: 30.14"   Gusts: NA
Location:  43.92°N, 86.07°W
Report Text: KLDM 270135Z AUTO 00000KT 4SM -SN SCT019 OVC030 M01/M02 A3014 RMK AO2 T10151023
Loading
Personal Weather Stations






























Interactive Weather Map New forecast layout! Learn more

10-Day Weather Forecast

Advertisements
Track Severe Weather on mobile